Time;durP1;ratioP1;P1;durP2;ratioP2;P2;SDS_P1;SDS_P2;PMS_P1;PMS_P2;Temp;Humidity;BMP_temperature;BMP_pressure;BME280_temperature;BME280_humidity;BME280_pressure;Samples;Min_cycle;Max_cycle;Signal;HPM_P1;HPM_P2
2023/08/26 00:01:55;;;;;;;19.17;13.20;;;19.90;99.90;;;;;;5044096;28;50630;-69
2023/08/26 00:04:22;;;;;;;23.77;13.38;;;20.00;99.90;;;;;;5026402;28;49750;-69
2023/08/26 00:06:48;;;;;;;22.10;12.70;;;20.00;99.90;;;;;;5027996;28;61958;-69
2023/08/26 00:09:15;;;;;;;17.02;13.00;;;19.90;99.90;;;;;;5047821;28;74022;-68
2023/08/26 00:11:41;;;;;;;16.38;11.82;;;19.90;99.90;;;;;;5024015;28;49762;-69
2023/08/26 00:14:07;;;;;;;15.75;12.70;;;19.90;99.90;;;;;;4993826;28;48996;-69
2023/08/26 00:16:34;;;;;;;16.08;11.70;;;19.80;99.90;;;;;;4975991;28;66720;-69
2023/08/26 00:19:00;;;;;;;16.45;12.25;;;19.70;99.90;;;;;;5010300;28;49994;-64
2023/08/26 00:21:27;;;;;;;17.00;12.10;;;19.80;99.90;;;;;;5021444;28;50436;-69
2023/08/26 00:23:53;;;;;;;14.65;12.00;;;19.80;99.90;;;;;;5000673;28;42747;-69
2023/08/26 00:26:19;;;;;;;23.85;12.38;;;19.80;99.90;;;;;;5008845;28;48775;-69
2023/08/26 00:28:46;;;;;;;18.70;12.60;;;19.70;99.90;;;;;;4992464;28;48856;-69
2023/08/26 00:31:12;;;;;;;16.02;12.82;;;19.80;99.90;;;;;;5013481;28;45731;-69
2023/08/26 00:33:38;;;;;;;21.20;13.15;;;19.80;99.90;;;;;;4976730;28;46795;-69
2023/08/26 00:36:04;;;;;;;17.05;12.60;;;19.70;99.90;;;;;;4968376;28;49491;-68
2023/08/26 00:38:30;;;;;;;16.90;12.23;;;19.70;99.90;;;;;;4955515;28;49758;-69
2023/08/26 00:40:56;;;;;;;15.95;11.77;;;19.70;99.90;;;;;;4940380;28;49461;-69
2023/08/26 00:43:22;;;;;;;18.73;12.95;;;19.60;99.90;;;;;;4965496;28;49819;-69
2023/08/26 00:45:53;;;;;;;19.45;12.15;;;19.60;99.90;;;;;;4956625;28;29650;-68
2023/08/26 00:48:20;;;;;;;16.77;12.70;;;19.60;99.90;;;;;;4963140;28;49274;-69
2023/08/26 00:50:48;;;;;;;15.13;11.85;;;19.60;99.90;;;;;;4949858;28;48831;-69
2023/08/26 00:53:16;;;;;;;17.73;12.38;;;19.60;99.90;;;;;;4993106;28;48674;-69
2023/08/26 00:55:43;;;;;;;15.60;12.57;;;19.60;99.90;;;;;;4974538;28;31672;-69
2023/08/26 00:58:10;;;;;;;23.00;12.90;;;19.50;99.90;;;;;;4965718;28;48532;-69
2023/08/26 01:00:36;;;;;;;19.02;13.45;;;19.50;99.90;;;;;;4987104;28;48944;-69
2023/08/26 01:03:08;;;;;;;16.98;12.88;;;19.50;99.90;;;;;;4997481;28;49344;-69
2023/08/26 01:05:34;;;;;;;16.60;11.98;;;19.50;99.90;;;;;;4979852;28;49798;-68
2023/08/26 01:08:03;;;;;;;17.80;13.05;;;19.50;99.90;;;;;;4985652;28;33236;-69
2023/08/26 01:10:49;;;;;;;19.40;12.43;;;19.50;99.90;;;;;;5033761;28;24845;-69
2023/08/26 01:13:23;;;;;;;19.95;12.60;;;19.50;99.90;;;;;;4929234;28;49092;-69
2023/08/26 01:15:51;;;;;;;22.02;12.23;;;19.60;99.90;;;;;;4937975;28;48953;-69
2023/08/26 01:18:18;;;;;;;16.25;11.45;;;19.60;99.90;;;;;;4921225;28;61443;-69
2023/08/26 01:20:44;;;;;;;22.25;13.52;;;19.60;99.90;;;;;;4906087;28;63463;-69
2023/08/26 01:23:20;;;;;;;16.58;13.10;;;19.60;99.90;;;;;;4941016;28;48893;-69
2023/08/26 01:25:47;;;;;;;18.30;12.73;;;19.60;99.90;;;;;;4910393;28;48996;-68
2023/08/26 01:28:13;;;;;;;16.58;12.43;;;19.60;99.90;;;;;;4984186;28;48512;-69
2023/08/26 01:30:40;;;;;;;16.10;12.20;;;19.60;99.90;;;;;;4987140;28;49478;-69
2023/08/26 01:36:05;;;;;;;15.13;12.20;;;19.60;99.90;;;;;;5092067;27;20940;-68
2023/08/26 01:38:32;;;;;;;16.83;12.50;;;19.60;99.90;;;;;;5091911;28;20029;-68
2023/08/26 01:41:02;;;;;;;18.63;11.65;;;19.50;99.90;;;;;;5090723;28;20512;-68
2023/08/26 01:43:28;;;;;;;16.67;11.93;;;19.50;99.90;;;;;;5091983;28;20503;-69
2023/08/26 01:45:54;;;;;;;16.40;12.35;;;19.50;99.90;;;;;;5090407;28;20469;-68
2023/08/26 01:48:20;;;;;;;18.67;12.68;;;19.50;99.90;;;;;;5092020;28;20057;-68
2023/08/26 01:50:45;;;;;;;18.50;12.52;;;19.40;99.90;;;;;;5092259;28;20032;-68
2023/08/26 01:53:11;;;;;;;18.63;12.55;;;19.40;99.90;;;;;;5090331;28;20382;-68
2023/08/26 01:55:37;;;;;;;15.55;11.48;;;19.40;99.90;;;;;;5090406;28;20029;-69
2023/08/26 01:58:03;;;;;;;19.23;11.90;;;19.40;99.90;;;;;;5090504;28;20059;-68
2023/08/26 02:00:29;;;;;;;17.38;11.45;;;19.50;99.90;;;;;;5090157;28;20028;-68
2023/08/26 02:02:57;;;;;;;18.45;11.30;;;19.50;99.90;;;;;;5090365;28;20032;-68
2023/08/26 02:05:23;;;;;;;16.70;11.82;;;19.40;99.90;;;;;;5091565;28;20377;-69
2023/08/26 02:07:49;;;;;;;18.25;12.00;;;19.40;99.90;;;;;;5091299;28;20031;-68
2023/08/26 02:10:15;;;;;;;16.17;10.95;;;19.40;99.90;;;;;;5090187;28;20062;-68
2023/08/26 02:12:41;;;;;;;15.55;11.65;;;19.40;99.90;;;;;;5091333;28;20028;-68
2023/08/26 02:15:08;;;;;;;14.10;11.85;;;19.40;99.90;;;;;;5089794;28;20070;-68
2023/08/26 02:17:34;;;;;;;14.75;12.23;;;19.30;99.90;;;;;;5090172;28;20427;-68
2023/08/26 02:19:59;;;;;;;15.25;11.80;;;19.30;99.90;;;;;;5091401;28;20021;-68
2023/08/26 02:22:25;;;;;;;15.95;12.02;;;19.30;99.90;;;;;;5089766;28;20489;-68
2023/08/26 02:24:51;;;;;;;17.75;11.80;;;19.30;99.90;;;;;;5091381;28;20024;-68
2023/08/26 02:27:18;;;;;;;18.77;12.50;;;19.30;99.90;;;;;;5089801;28;20031;-68
2023/08/26 02:29:44;;;;;;;18.88;12.27;;;19.20;99.90;;;;;;5089627;28;20397;-69
2023/08/26 02:32:11;;;;;;;19.10;13.10;;;19.20;99.90;;;;;;5091096;28;20039;-68
2023/08/26 02:34:39;;;;;;;18.23;12.23;;;19.10;99.90;;;;;;5089354;28;20043;-68
2023/08/26 02:37:05;;;;;;;15.93;12.77;;;19.10;99.90;;;;;;5090936;28;20017;-68
2023/08/26 02:39:31;;;;;;;18.27;12.05;;;19.10;99.90;;;;;;5090930;28;20511;-69
2023/08/26 02:41:57;;;;;;;23.63;12.70;;;19.10;99.90;;;;;;5090639;28;20051;-68
2023/08/26 02:44:23;;;;;;;15.20;11.55;;;19.10;99.90;;;;;;5089561;28;20177;-68
2023/08/26 02:46:48;;;;;;;17.40;12.75;;;19.10;99.90;;;;;;5080613;28;20028;-68
2023/08/26 02:49:14;;;;;;;17.25;12.45;;;19.00;99.90;;;;;;5075792;28;20055;-68
2023/08/26 02:51:40;;;;;;;21.38;12.80;;;19.00;99.90;;;;;;5077141;28;20074;-68
2023/08/26 02:54:06;;;;;;;16.88;12.50;;;19.00;99.90;;;;;;5075879;28;20374;-68
2023/08/26 02:56:32;;;;;;;15.07;11.18;;;19.00;99.90;;;;;;5075702;28;20025;-68
2023/08/26 02:58:58;;;;;;;14.68;12.25;;;19.00;99.90;;;;;;5077098;28;20016;-68
2023/08/26 03:01:24;;;;;;;16.85;11.90;;;18.90;99.90;;;;;;5075770;28;20115;-68
2023/08/26 03:03:50;;;;;;;17.65;13.02;;;18.90;99.90;;;;;;5075707;28;20485;-68
2023/08/26 03:06:16;;;;;;;18.88;11.73;;;19.00;99.90;;;;;;5076864;28;20378;-68
2023/08/26 03:08:42;;;;;;;17.85;12.40;;;19.00;99.90;;;;;;5075597;28;20025;-68
2023/08/26 03:11:08;;;;;;;16.30;11.88;;;18.90;99.90;;;;;;5075254;28;20028;-68
2023/08/26 03:13:34;;;;;;;18.10;13.10;;;18.90;99.90;;;;;;5076808;28;20417;-68
2023/08/26 03:16:10;;;;;;;14.63;12.27;;;18.90;99.90;;;;;;5076830;28;20104;-68
2023/08/26 03:18:36;;;;;;;19.00;13.25;;;18.90;99.90;;;;;;5076726;28;20082;-68
2023/08/26 03:21:07;;;;;;;17.30;12.52;;;18.80;99.90;;;;;;5075441;28;20071;-68
2023/08/26 03:23:34;;;;;;;14.20;12.73;;;18.80;99.90;;;;;;5076606;28;20020;-68
2023/08/26 03:26:01;;;;;;;18.13;13.25;;;18.90;99.90;;;;;;5075048;28;20029;-68
2023/08/26 03:28:27;;;;;;;19.38;12.27;;;18.80;99.90;;;;;;5075290;28;20494;-68
2023/08/26 03:31:00;;;;;;;14.77;12.02;;;18.80;99.90;;;;;;5075216;28;20070;-68
2023/08/26 03:33:28;;;;;;;15.40;12.63;;;18.80;99.90;;;;;;5074910;28;20025;-68
2023/08/26 03:35:54;;;;;;;18.90;12.77;;;18.70;99.90;;;;;;5076356;28;20390;-68
2023/08/26 03:38:19;;;;;;;16.30;13.13;;;18.70;99.90;;;;;;5076316;28;20027;-68
2023/08/26 03:40:45;;;;;;;16.48;12.73;;;18.70;99.90;;;;;;5076038;28;20104;-68
2023/08/26 03:43:12;;;;;;;18.48;13.00;;;18.70;99.90;;;;;;5075040;28;20024;-68
2023/08/26 03:45:39;;;;;;;16.88;12.40;;;18.70;99.90;;;;;;5076191;28;20501;-68
2023/08/26 03:48:05;;;;;;;18.63;12.80;;;18.60;99.90;;;;;;5074793;28;20124;-68
2023/08/26 03:50:31;;;;;;;17.70;12.93;;;18.60;99.90;;;;;;5074810;28;20052;-68
2023/08/26 03:52:57;;;;;;;16.40;12.48;;;18.60;99.90;;;;;;5076009;28;20123;-68
2023/08/26 03:55:22;;;;;;;18.67;12.85;;;18.60;99.90;;;;;;5074521;28;20040;-68
2023/08/26 03:57:48;;;;;;;17.17;13.32;;;18.60;99.90;;;;;;5073826;28;20032;-68
2023/08/26 04:00:14;;;;;;;18.42;12.68;;;18.60;99.90;;;;;;5075823;28;20020;-68
2023/08/26 04:02:41;;;;;;;20.05;12.95;;;18.60;99.90;;;;;;5074486;28;20029;-68
2023/08/26 04:05:07;;;;;;;16.45;13.88;;;18.60;99.90;;;;;;5075937;28;20028;-68
2023/08/26 04:07:33;;;;;;;18.02;12.82;;;18.60;99.90;;;;;;5075604;28;20036;-68
2023/08/26 04:09:59;;;;;;;18.30;13.30;;;18.60;99.90;;;;;;5074322;28;20032;-68
2023/08/26 04:12:26;;;;;;;20.00;13.60;;;18.60;99.90;;;;;;5074242;28;20458;-68
2023/08/26 04:14:51;;;;;;;13.98;12.23;;;18.60;99.90;;;;;;5073968;28;20071;-68
2023/08/26 04:17:18;;;;;;;20.05;12.70;;;18.60;99.90;;;;;;5075538;28;20012;-68
2023/08/26 04:19:44;;;;;;;16.75;12.88;;;18.60;99.90;;;;;;5075516;28;20040;-68
2023/08/26 04:22:10;;;;;;;19.88;13.30;;;18.60;99.90;;;;;;5074077;28;20029;-68
2023/08/26 04:24:36;;;;;;;19.48;14.38;;;18.60;99.90;;;;;;5074223;28;20435;-68
2023/08/26 04:27:01;;;;;;;25.17;13.63;;;18.70;99.90;;;;;;5075938;28;20111;-68
2023/08/26 04:29:27;;;;;;;24.38;13.65;;;18.70;99.90;;;;;;5073696;28;20043;-68
2023/08/26 04:31:53;;;;;;;17.88;13.05;;;18.80;99.90;;;;;;5074017;28;20044;-68
2023/08/26 04:34:19;;;;;;;22.63;15.45;;;18.80;99.90;;;;;;5073790;28;20056;-68
2023/08/26 04:36:46;;;;;;;19.23;14.20;;;18.90;99.90;;;;;;5073602;28;20032;-68
2023/08/26 04:39:12;;;;;;;21.50;14.20;;;19.00;99.90;;;;;;5075051;28;20070;-68
2023/08/26 04:41:41;;;;;;;22.65;13.40;;;19.00;99.90;;;;;;5073876;28;20031;-68
2023/08/26 04:44:07;;;;;;;18.02;12.43;;;19.00;99.90;;;;;;5073412;28;20024;-68
2023/08/26 04:46:33;;;;;;;21.98;12.10;;;19.10;99.90;;;;;;5073785;28;20086;-68
2023/08/26 04:48:59;;;;;;;17.85;12.13;;;19.10;99.90;;;;;;5073670;28;20037;-68
2023/08/26 04:51:25;;;;;;;17.88;13.20;;;19.20;99.90;;;;;;5073460;28;20037;-68
2023/08/26 04:53:52;;;;;;;20.45;13.50;;;19.20;99.90;;;;;;5073504;28;20115;-68
2023/08/26 04:56:18;;;;;;;17.83;13.48;;;19.30;99.90;;;;;;5073685;28;20115;-68
2023/08/26 04:58:44;;;;;;;20.42;12.95;;;19.30;99.90;;;;;;5073206;28;20028;-68
2023/08/26 05:01:10;;;;;;;19.27;13.23;;;19.40;99.90;;;;;;5074758;28;20107;-68
2023/08/26 05:03:36;;;;;;;15.15;12.35;;;19.50;99.90;;;;;;5073469;28;20052;-68
2023/08/26 05:06:03;;;;;;;18.00;14.32;;;19.50;99.90;;;;;;5073241;28;20401;-68
2023/08/26 05:08:29;;;;;;;16.70;13.82;;;19.60;99.90;;;;;;5074468;28;20030;-68
2023/08/26 05:10:55;;;;;;;16.90;13.25;;;19.70;99.90;;;;;;5073311;28;20493;-68
2023/08/26 05:13:21;;;;;;;16.83;12.50;;;19.80;99.90;;;;;;5073057;28;20037;-68
2023/08/26 05:15:47;;;;;;;20.38;13.43;;;19.90;99.90;;;;;;5074511;28;20032;-68
2023/08/26 05:18:15;;;;;;;20.38;13.63;;;20.00;99.90;;;;;;5074395;28;20030;-68
2023/08/26 05:20:45;;;;;;;20.58;13.02;;;20.10;99.90;;;;;;5073032;28;20033;-68
2023/08/26 05:23:13;;;;;;;23.70;13.50;;;20.20;99.90;;;;;;5073220;28;20055;-68
2023/08/26 05:25:39;;;;;;;23.48;13.02;;;20.20;99.90;;;;;;5072967;28;20028;-68
2023/08/26 05:28:05;;;;;;;24.10;14.90;;;20.40;99.90;;;;;;5074523;28;20029;-68
2023/08/26 05:30:32;;;;;;;31.15;15.70;;;20.40;99.90;;;;;;5073229;28;20359;-68
2023/08/26 05:32:58;;;;;;;22.30;14.63;;;20.60;99.90;;;;;;5072965;28;20486;-68
2023/08/26 05:35:25;;;;;;;24.13;15.32;;;20.70;99.90;;;;;;5072838;28;20112;-68
2023/08/26 05:37:51;;;;;;;29.98;16.05;;;20.80;99.90;;;;;;5072995;28;20074;-68
2023/08/26 05:40:18;;;;;;;29.33;15.75;;;20.90;99.90;;;;;;5073121;28;20035;-68
2023/08/26 05:42:44;;;;;;;31.17;16.75;;;21.10;99.90;;;;;;5074247;28;20033;-68
2023/08/26 05:45:10;;;;;;;34.60;15.52;;;21.30;99.90;;;;;;5056404;28;20025;-68
2023/08/26 05:47:36;;;;;;;26.98;15.25;;;21.40;99.90;;;;;;5072881;28;20468;-68
2023/08/26 05:50:04;;;;;;;25.98;16.80;;;21.60;99.90;;;;;;5074144;28;20240;-68
2023/08/26 05:52:30;;;;;;;26.58;15.45;;;21.70;99.90;;;;;;5072905;28;20462;-68
2023/08/26 05:54:56;;;;;;;27.95;17.60;;;21.80;99.90;;;;;;5072591;28;20036;-68
2023/08/26 05:57:22;;;;;;;29.17;16.63;;;21.90;99.90;;;;;;5074274;28;20082;-68
2023/08/26 05:59:47;;;;;;;24.63;14.15;;;22.10;99.90;;;;;;5072816;28;20025;-68
2023/08/26 06:02:13;;;;;;;26.35;15.05;;;22.20;99.90;;;;;;5072593;28;20076;-68
2023/08/26 06:04:39;;;;;;;23.70;14.80;;;22.30;99.90;;;;;;5072727;28;20082;-68
2023/08/26 06:07:06;;;;;;;28.52;16.17;;;22.50;99.90;;;;;;5074170;28;20035;-68
2023/08/26 06:09:32;;;;;;;24.73;15.80;;;22.60;99.90;;;;;;5072634;28;20028;-68
2023/08/26 06:11:58;;;;;;;30.88;16.02;;;22.70;99.90;;;;;;5074082;28;20037;-68
2023/08/26 06:14:24;;;;;;;27.17;15.02;;;22.80;99.90;;;;;;5072465;28;20040;-70
2023/08/26 06:16:51;;;;;;;26.27;14.65;;;23.00;99.90;;;;;;5072662;28;20025;-68
2023/08/26 06:19:17;;;;;;;23.88;14.43;;;23.20;99.90;;;;;;5074001;28;20031;-69
2023/08/26 06:21:43;;;;;;;29.90;15.00;;;23.40;99.90;;;;;;5075784;28;20375;-68
2023/08/26 06:24:09;;;;;;;29.05;14.60;;;23.50;99.90;;;;;;5076230;28;20112;-68
2023/08/26 06:26:35;;;;;;;26.83;15.10;;;23.70;99.90;;;;;;5077659;28;20115;-69
2023/08/26 06:29:02;;;;;;;23.67;14.60;;;23.90;99.90;;;;;;5076235;28;20048;-68
2023/08/26 06:31:28;;;;;;;22.05;14.23;;;24.10;99.90;;;;;;5076189;28;20511;-69
2023/08/26 06:33:55;;;;;;;34.92;18.30;;;24.30;99.90;;;;;;5076003;28;20101;-68
2023/08/26 06:36:21;;;;;;;26.20;15.15;;;24.50;99.90;;;;;;5076289;28;20029;-68
2023/08/26 06:38:47;;;;;;;24.70;14.57;;;24.70;99.90;;;;;;5076012;28;20032;-69
2023/08/26 06:41:13;;;;;;;24.73;14.77;;;24.90;99.90;;;;;;5076089;28;20041;-68
2023/08/26 06:43:39;;;;;;;26.33;14.57;;;25.10;99.90;;;;;;5075959;28;20381;-69
2023/08/26 06:46:04;;;;;;;21.60;14.10;;;25.40;99.90;;;;;;5076019;28;20037;-69
2023/08/26 06:48:30;;;;;;;25.90;13.90;;;25.80;99.90;;;;;;5076025;28;20033;-69
2023/08/26 06:50:57;;;;;;;23.60;13.93;;;26.10;99.00;;;;;;5075889;28;20028;-69
2023/08/26 06:53:23;;;;;;;24.17;15.27;;;26.40;97.10;;;;;;5076933;28;20043;-68
2023/08/26 06:55:51;;;;;;;22.50;15.23;;;26.50;96.70;;;;;;5075903;28;20124;-69
2023/08/26 06:58:18;;;;;;;30.77;18.67;;;26.70;96.00;;;;;;5076900;28;20042;-69
2023/08/26 07:00:44;;;;;;;40.42;20.42;;;27.10;95.60;;;;;;5076947;28;20488;-69
2023/08/26 07:03:10;;;;;;;28.88;16.25;;;27.00;93.90;;;;;;5076929;28;20025;-69
2023/08/26 07:05:38;;;;;;;29.80;15.98;;;27.10;93.00;;;;;;5076857;28;20422;-69
2023/08/26 07:08:04;;;;;;;30.70;17.98;;;27.40;93.30;;;;;;5076867;28;20036;-70
2023/08/26 07:10:30;;;;;;;28.20;17.63;;;27.50;92.00;;;;;;5076770;28;20462;-69
2023/08/26 07:12:56;;;;;;;30.08;17.08;;;27.90;91.90;;;;;;5076383;28;20024;-69
2023/08/26 07:15:22;;;;;;;23.92;14.30;;;28.30;91.10;;;;;;5076632;28;20385;-69
2023/08/26 07:17:48;;;;;;;24.05;12.85;;;28.60;89.70;;;;;;5076692;28;20424;-69
2023/08/26 07:20:13;;;;;;;27.23;12.55;;;28.90;86.70;;;;;;5076537;28;20102;-70
2023/08/26 07:22:39;;;;;;;23.25;11.65;;;29.30;84.90;;;;;;5075229;28;20039;-70
2023/08/26 07:25:05;;;;;;;19.13;12.18;;;29.50;82.10;;;;;;5076639;28;20024;-70
2023/08/26 07:27:31;;;;;;;22.00;12.13;;;29.80;79.80;;;;;;5076233;28;20036;-70
2023/08/26 07:29:57;;;;;;;19.10;13.32;;;30.10;79.30;;;;;;5076330;28;20032;-70
2023/08/26 07:32:23;;;;;;;26.40;13.95;;;30.60;78.30;;;;;;5076366;28;20474;-70
2023/08/26 07:34:52;;;;;;;25.65;13.65;;;30.80;77.90;;;;;;5076103;28;20437;-70
2023/08/26 07:37:18;;;;;;;27.42;13.73;;;31.30;73.50;;;;;;5076181;28;20409;-70
2023/08/26 07:39:44;;;;;;;18.73;12.90;;;31.40;71.40;;;;;;5076261;28;20482;-70
2023/08/26 07:42:09;;;;;;;24.13;14.32;;;31.60;69.30;;;;;;5075969;28;20111;-70
2023/08/26 07:44:35;;;;;;;20.65;11.82;;;31.80;67.30;;;;;;5076320;28;20493;-70
2023/08/26 07:47:02;;;;;;;20.70;12.10;;;31.80;67.20;;;;;;5076274;28;20050;-71
2023/08/26 07:49:28;;;;;;;22.58;12.68;;;32.20;67.40;;;;;;5074454;28;20422;-71
2023/08/26 07:51:54;;;;;;;21.10;11.43;;;32.10;64.60;;;;;;5076181;28;20114;-70
2023/08/26 07:54:20;;;;;;;21.73;12.07;;;32.40;64.80;;;;;;5075915;28;20021;-71
2023/08/26 07:56:46;;;;;;;15.93;11.30;;;32.60;62.20;;;;;;5075770;28;20042;-71
2023/08/26 07:59:12;;;;;;;15.27;10.35;;;32.90;60.70;;;;;;5075967;28;20025;-71
2023/08/26 08:01:38;;;;;;;16.63;10.65;;;32.50;62.70;;;;;;5075713;28;20025;-71
2023/08/26 08:04:04;;;;;;;18.58;9.70;;;32.60;62.40;;;;;;5075676;28;20016;-71
2023/08/26 08:06:30;;;;;;;17.67;8.85;;;32.90;59.90;;;;;;5075975;28;20020;-71
2023/08/26 08:08:56;;;;;;;13.07;9.50;;;33.30;61.20;;;;;;5075588;28;20044;-71
2023/08/26 08:11:21;;;;;;;14.13;9.30;;;33.60;58.40;;;;;;5075517;28;20044;-71
2023/08/26 08:13:47;;;;;;;14.90;9.73;;;34.00;58.50;;;;;;5075433;28;20084;-71
2023/08/26 08:16:14;;;;;;;19.13;9.98;;;34.10;55.40;;;;;;5075541;28;20595;-71
2023/08/26 08:18:40;;;;;;;17.95;10.90;;;34.40;56.80;;;;;;5075301;28;20021;-71
2023/08/26 08:21:05;;;;;;;14.55;9.85;;;34.70;54.80;;;;;;5075753;28;20031;-71
2023/08/26 08:23:31;;;;;;;18.27;9.43;;;34.90;54.60;;;;;;5075337;28;20029;-71
2023/08/26 08:25:57;;;;;;;17.40;9.98;;;34.90;53.00;;;;;;5075047;28;20055;-71
2023/08/26 08:28:23;;;;;;;13.90;8.90;;;34.90;52.80;;;;;;5075452;28;20032;-71
2023/08/26 08:30:49;;;;;;;20.42;10.25;;;35.10;52.80;;;;;;5075369;28;20028;-71
2023/08/26 08:33:15;;;;;;;16.70;9.60;;;35.40;51.30;;;;;;5073801;28;20101;-71
2023/08/26 08:35:41;;;;;;;16.83;9.18;;;35.60;53.20;;;;;;5074957;28;20047;-71
2023/08/26 08:38:06;;;;;;;17.92;9.88;;;35.70;50.40;;;;;;5074882;28;20033;-71
2023/08/26 08:40:33;;;;;;;17.45;9.75;;;35.70;50.60;;;;;;5075061;28;20028;-72
2023/08/26 08:43:02;;;;;;;12.07;8.82;;;35.70;49.50;;;;;;5075012;28;20630;-72
2023/08/26 08:45:28;;;;;;;12.45;9.13;;;35.90;48.30;;;;;;5074532;28;20428;-72
2023/08/26 08:47:56;;;;;;;16.55;9.63;;;35.90;50.70;;;;;;5074781;28;20056;-71
2023/08/26 08:50:23;;;;;;;12.20;9.27;;;36.10;47.20;;;;;;5074944;28;20029;-72
2023/08/26 08:52:54;;;;;;;14.68;9.18;;;36.10;47.80;;;;;;5074755;28;20025;-72
2023/08/26 08:55:21;;;;;;;16.30;9.48;;;36.40;46.50;;;;;;5074751;28;20036;-72
2023/08/26 08:57:49;;;;;;;18.83;9.98;;;36.00;48.80;;;;;;5074865;28;20474;-72
2023/08/26 09:00:17;;;;;;;14.02;9.52;;;36.50;46.30;;;;;;5074482;28;20450;-71
2023/08/26 09:02:46;;;;;;;25.90;11.45;;;36.40;45.30;;;;;;5074486;28;20028;-72
2023/08/26 09:05:12;;;;;;;18.10;9.95;;;36.50;44.20;;;;;;5075014;28;20174;-72
2023/08/26 09:07:42;;;;;;;19.15;9.32;;;36.90;44.30;;;;;;5074695;28;20489;-72
2023/08/26 09:10:11;;;;;;;19.83;10.07;;;37.20;43.40;;;;;;5074603;28;20378;-72
2023/08/26 09:12:37;;;;;;;19.85;9.40;;;37.30;41.80;;;;;;5074500;28;20024;-72
2023/08/26 09:15:05;;;;;;;14.52;9.20;;;37.70;42.90;;;;;;5074297;28;20064;-72
2023/08/26 09:17:30;;;;;;;17.05;9.15;;;37.90;42.90;;;;;;5074451;28;20021;-72
2023/08/26 09:19:58;;;;;;;14.23;9.27;;;38.30;41.00;;;;;;5074505;28;20036;-72
2023/08/26 09:22:26;;;;;;;14.52;9.65;;;38.10;42.00;;;;;;5074183;28;20459;-71
2023/08/26 09:24:56;;;;;;;13.38;8.63;;;38.40;39.00;;;;;;5074444;28;20033;-73
2023/08/26 09:27:21;;;;;;;13.77;8.60;;;38.70;38.20;;;;;;5074336;28;20058;-72
2023/08/26 09:29:47;;;;;;;17.83;8.73;;;38.90;38.70;;;;;;5074382;28;20111;-72
2023/08/26 09:32:13;;;;;;;16.38;10.35;;;39.10;37.60;;;;;;5074433;28;20032;-71
2023/08/26 09:34:39;;;;;;;24.45;12.07;;;39.20;37.20;;;;;;5073984;28;20037;-72
2023/08/26 09:37:08;;;;;;;13.15;9.77;;;39.10;35.30;;;;;;5074234;28;20029;-72
2023/08/26 09:39:45;;;;;;;15.10;9.60;;;39.00;35.20;;;;;;5074414;28;20021;-72
2023/08/26 09:42:12;;;;;;;15.32;9.10;;;39.20;36.40;;;;;;5074242;28;20078;-72
2023/08/26 09:44:40;;;;;;;13.70;9.35;;;39.50;33.80;;;;;;5074187;28;20378;-72
2023/08/26 09:47:06;;;;;;;17.52;9.40;;;39.00;34.70;;;;;;5074511;28;20029;-72
2023/08/26 09:49:35;;;;;;;15.95;9.32;;;38.50;33.90;;;;;;5074027;28;20059;-72
2023/08/26 09:52:01;;;;;;;17.30;9.32;;;38.80;35.30;;;;;;5074121;28;20444;-72
2023/08/26 09:54:28;;;;;;;15.68;9.70;;;39.40;31.80;;;;;;5074211;28;20079;-72
2023/08/26 09:56:54;;;;;;;12.30;8.77;;;39.50;32.50;;;;;;5076393;28;20032;-72
2023/08/26 09:59:19;;;;;;;12.50;9.02;;;39.50;32.60;;;;;;5078185;28;20035;-72
2023/08/26 10:01:46;;;;;;;12.05;8.52;;;39.80;32.70;;;;;;5078066;28;20051;-72
2023/08/26 10:04:20;;;;;;;18.38;9.80;;;39.70;31.30;;;;;;5078006;28;20028;-73
2023/08/26 10:06:57;;;;;;;16.08;11.20;;;40.00;31.40;;;;;;5076780;28;20036;-72
2023/08/26 10:09:48;;;;;;;16.42;10.27;;;40.10;30.60;;;;;;5078138;28;20040;-72
2023/08/26 10:12:20;;;;;;;19.83;9.85;;;39.90;30.00;;;;;;5077675;28;20489;-72
2023/08/26 10:14:49;;;;;;;17.27;10.75;;;40.10;29.60;;;;;;5077894;28;20036;-72
2023/08/26 10:17:20;;;;;;;12.82;9.95;;;40.70;28.70;;;;;;5077850;28;20028;-72
2023/08/26 10:19:47;;;;;;;11.40;9.40;;;40.70;28.60;;;;;;5077758;28;20033;-72
2023/08/26 10:22:13;;;;;;;13.80;9.13;;;40.70;29.40;;;;;;5077807;28;20025;-72
2023/08/26 10:24:40;;;;;;;22.10;11.30;;;40.70;28.30;;;;;;5077607;28;20032;-72
2023/08/26 10:27:07;;;;;;;17.08;11.02;;;41.10;29.30;;;;;;5077578;28;20024;-73
2023/08/26 10:29:36;;;;;;;15.63;10.45;;;41.40;29.60;;;;;;5077987;28;20028;-72
2023/08/26 10:32:17;;;;;;;17.30;10.63;;;40.20;28.90;;;;;;5077517;28;20020;-72
2023/08/26 10:34:56;;;;;;;18.88;10.82;;;40.00;27.70;;;;;;5077308;28;20044;-73
2023/08/26 10:37:29;;;;;;;21.13;11.40;;;40.20;26.60;;;;;;5077541;28;20050;-72
2023/08/26 10:39:56;;;;;;;18.95;10.70;;;40.10;26.60;;;;;;5077183;28;20382;-72
2023/08/26 10:42:23;;;;;;;16.02;10.30;;;40.70;25.90;;;;;;5077448;28;20021;-72
2023/08/26 10:44:56;;;;;;;20.70;11.48;;;40.90;26.00;;;;;;5077521;28;20078;-72
2023/08/26 10:47:40;;;;;;;17.55;9.73;;;40.70;24.30;;;;;;5077102;28;20036;-72
2023/08/26 10:50:34;;;;;;;19.85;10.13;;;40.90;24.40;;;;;;5077181;28;20103;-72
2023/08/26 10:53:16;;;;;;;20.75;10.57;;;39.60;26.00;;;;;;5076222;28;20460;-72
2023/08/26 10:55:42;;;;;;;24.92;11.10;;;39.70;25.00;;;;;;5076878;28;20025;-73
2023/08/26 10:58:11;;;;;;;22.70;11.00;;;40.00;25.30;;;;;;5077233;28;20071;-72
2023/08/26 11:00:58;;;;;;;23.45;10.27;;;40.20;27.30;;;;;;5076992;28;20055;-72
2023/08/26 11:03:25;;;;;;;22.77;9.50;;;40.60;23.50;;;;;;5076490;28;20047;-72
2023/08/26 11:06:02;;;;;;;25.88;10.02;;;40.20;24.60;;;;;;5077009;28;20103;-72
2023/08/26 11:08:28;;;;;;;24.38;10.35;;;40.80;22.70;;;;;;5076371;28;20116;-72
2023/08/26 11:10:54;;;;;;;28.92;10.55;;;41.10;23.90;;;;;;5076870;28;20438;-72
2023/08/26 11:13:22;;;;;;;19.20;8.43;;;41.10;23.00;;;;;;5076739;28;20046;-72
2023/08/26 11:15:49;;;;;;;24.48;7.85;;;41.40;22.20;;;;;;5076548;28;20469;-72
2023/08/26 11:18:16;;;;;;;23.13;11.25;;;41.70;22.10;;;;;;5076730;28;20024;-72
2023/08/26 11:20:45;;;;;;;17.55;8.68;;;41.40;23.60;;;;;;5076729;28;20342;-72
2023/08/26 11:23:11;;;;;;;20.85;8.73;;;41.60;23.30;;;;;;5076525;28;20028;-73
2023/08/26 11:25:38;;;;;;;15.98;8.25;;;41.80;23.30;;;;;;5076547;28;20025;-72
2023/08/26 11:28:09;;;;;;;17.92;8.02;;;41.40;21.20;;;;;;5076927;28;20060;-72
2023/08/26 11:30:41;;;;;;;12.70;7.70;;;40.70;21.80;;;;;;5076472;28;20489;-73
2023/08/26 11:33:10;;;;;;;17.83;8.25;;;40.50;22.60;;;;;;5076431;28;20077;-73
2023/08/26 11:35:40;;;;;;;14.70;8.05;;;41.30;23.10;;;;;;5076269;28;20101;-72
2023/08/26 11:38:10;;;;;;;17.42;8.13;;;41.90;21.90;;;;;;5076249;28;20024;-73
2023/08/26 11:40:36;;;;;;;;;;;42.10;22.30;;;;;;5076813;28;20088;-73
2023/08/26 11:43:12;;;;;;;16.27;7.80;;;41.30;21.40;;;;;;5076283;28;19908;-73
2023/08/26 11:45:40;;;;;;;12.90;7.00;;;41.70;22.10;;;;;;5076382;28;20032;-72
2023/08/26 11:48:10;;;;;;;19.80;8.38;;;41.40;21.30;;;;;;5076245;28;20547;-73
2023/08/26 11:50:37;;;;;;;14.82;8.20;;;41.50;20.90;;;;;;5076137;28;20194;-72
2023/08/26 11:53:03;;;;;;;19.63;8.30;;;41.80;22.80;;;;;;5075940;28;20024;-72
2023/08/26 11:55:31;;;;;;;13.85;7.65;;;42.20;22.20;;;;;;5075987;28;20108;-72
2023/08/26 11:57:58;;;;;;;16.67;7.90;;;41.60;21.30;;;;;;5075877;28;20027;-72
2023/08/26 12:00:24;;;;;;;22.08;8.85;;;40.30;22.70;;;;;;5075776;28;20059;-72
2023/08/26 12:02:52;;;;;;;19.25;8.43;;;40.90;22.00;;;;;;5076000;28;20024;-73
2023/08/26 12:05:18;;;;;;;16.48;8.18;;;40.50;23.10;;;;;;5075488;28;20158;-73
2023/08/26 12:07:45;;;;;;;13.95;9.15;;;41.10;22.20;;;;;;5075640;28;20036;-72
2023/08/26 12:10:12;;;;;;;21.90;8.27;;;41.10;22.20;;;;;;5075818;28;20029;-72
2023/08/26 12:12:39;;;;;;;23.70;8.75;;;41.00;22.50;;;;;;5075448;28;20074;-72
2023/08/26 12:15:06;;;;;;;15.13;8.55;;;41.10;23.00;;;;;;5075601;28;20501;-73
2023/08/26 12:18:01;;;;;;;12.65;8.15;;;41.50;23.10;;;;;;5075542;28;20371;-72
2023/08/26 12:20:31;;;;;;;18.02;9.10;;;42.00;22.50;;;;;;5074541;28;20382;-73
2023/08/26 12:23:02;;;;;;;17.83;8.68;;;42.30;21.60;;;;;;5075472;28;20033;-73
2023/08/26 12:25:33;;;;;;;12.75;7.53;;;42.20;21.10;;;;;;5075170;28;20024;-72
2023/08/26 12:28:09;;;;;;;16.10;8.65;;;42.10;22.50;;;;;;5075339;28;20032;-73
2023/08/26 12:30:40;;;;;;;14.13;8.45;;;42.10;21.70;;;;;;5075423;28;20149;-73
2023/08/26 12:33:07;;;;;;;25.63;9.85;;;41.20;21.70;;;;;;5075355;28;20469;-73
2023/08/26 12:35:34;;;;;;;18.83;7.78;;;41.50;22.90;;;;;;5074967;28;20083;-72